Time;durP1;ratioP1;P1;durP2;ratioP2;P2;SDS_P1;SDS_P2;PMS_P1;PMS_P2;Temp;Humidity;BMP_temperature;BMP_pressure;BME280_temperature;BME280_humidity;BME280_pressure;Samples;Min_cycle;Max_cycle;Signal;HPM_P1;HPM_P2
2023/05/08 00:00:03;;;;;;;4.47;4.00;;;15.30;99.90;;;;;;6158067;23;20225;-73
2023/05/08 00:02:31;;;;;;;4.67;4.27;;;15.30;99.90;;;;;;6159680;23;20492;-73
2023/05/08 00:04:56;;;;;;;11.00;8.17;;;15.30;99.90;;;;;;6136624;23;20375;-73
2023/05/08 00:07:22;;;;;;;9.60;7.03;;;15.40;99.90;;;;;;6158564;23;20206;-72
2023/05/08 00:09:47;;;;;;;8.83;6.57;;;15.30;99.90;;;;;;6158258;23;20166;-73
2023/05/08 00:12:13;;;;;;;5.77;5.20;;;15.30;99.90;;;;;;6158478;23;20405;-73
2023/05/08 00:14:38;;;;;;;7.87;5.90;;;15.30;99.90;;;;;;6158715;23;20265;-73
2023/05/08 00:17:04;;;;;;;4.80;4.40;;;15.30;99.90;;;;;;6159008;23;20143;-73
2023/05/08 00:19:30;;;;;;;9.63;6.90;;;15.20;99.90;;;;;;6163429;23;20179;-72
2023/05/08 00:21:55;;;;;;;8.33;4.77;;;15.30;99.90;;;;;;6164440;23;20159;-73
2023/05/08 00:24:21;;;;;;;7.57;5.70;;;15.30;99.90;;;;;;6159395;23;20162;-71
2023/05/08 00:26:46;;;;;;;9.87;5.67;;;15.20;99.90;;;;;;6158599;23;20151;-72
2023/05/08 00:29:12;;;;;;;6.37;5.77;;;15.30;99.90;;;;;;6157803;23;20170;-71
2023/05/08 00:31:37;;;;;;;6.40;5.10;;;15.30;99.90;;;;;;6158635;23;20136;-72
2023/05/08 00:34:03;;;;;;;7.27;6.57;;;15.30;99.90;;;;;;6159051;23;20144;-71
2023/05/08 00:36:29;;;;;;;5.83;5.23;;;15.30;99.90;;;;;;6158786;23;20143;-71
2023/05/08 00:38:54;;;;;;;13.30;8.97;;;15.30;99.90;;;;;;6157761;23;20223;-71
2023/05/08 00:41:20;;;;;;;7.80;6.73;;;15.30;99.90;;;;;;6158531;23;20230;-71
2023/05/08 00:43:46;;;;;;;9.47;6.67;;;15.30;99.90;;;;;;6158327;23;20144;-72
2023/05/08 00:46:12;;;;;;;9.00;7.87;;;15.30;99.90;;;;;;6158587;23;20163;-75
2023/05/08 00:48:39;;;;;;;6.90;6.20;;;15.30;99.90;;;;;;6158149;23;20408;-76
2023/05/08 00:51:07;;;;;;;9.27;6.70;;;15.30;99.90;;;;;;6135078;23;20668;-75
2023/05/08 00:53:37;;;;;;;8.20;5.93;;;15.20;99.90;;;;;;6158632;23;20689;-75
2023/05/08 00:56:05;;;;;;;6.57;5.90;;;15.30;99.90;;;;;;6158937;23;20371;-74
2023/05/08 00:58:31;;;;;;;7.93;5.70;;;15.30;99.90;;;;;;6157578;23;20373;-72
2023/05/08 01:00:58;;;;;;;7.00;6.20;;;15.20;99.90;;;;;;6158558;23;20679;-70
2023/05/08 01:03:24;;;;;;;6.43;5.60;;;15.20;99.90;;;;;;6132676;23;20375;-74
2023/05/08 01:05:49;;;;;;;6.60;6.00;;;15.20;99.90;;;;;;6157690;23;20367;-72
2023/05/08 01:08:15;;;;;;;5.77;5.20;;;15.10;99.90;;;;;;6157940;23;20167;-71
2023/05/08 01:11:09;;;;;;;5.97;5.43;;;15.10;99.90;;;;;;6157689;23;20596;-71
2023/05/08 01:14:06;;;;;;;5.73;5.13;;;15.10;99.90;;;;;;6131857;23;20190;-71
2023/05/08 01:16:39;;;;;;;5.63;5.10;;;15.10;99.90;;;;;;6107711;23;20459;-71
2023/05/08 01:19:19;;;;;;;6.57;5.43;;;15.10;99.90;;;;;;6157194;23;20799;-72
2023/05/08 01:22:11;;;;;;;5.70;5.20;;;15.10;99.90;;;;;;6158018;23;20468;-71
2023/05/08 01:25:23;;;;;;;4.77;4.37;;;15.10;99.90;;;;;;6157975;23;20429;-72
2023/05/08 01:28:07;;;;;;;6.50;5.90;;;15.10;99.90;;;;;;6107137;23;20386;-72
2023/05/08 01:30:53;;;;;;;6.00;5.40;;;15.10;99.90;;;;;;6157635;23;20397;-72
2023/05/08 01:33:38;;;;;;;5.50;5.00;;;15.10;99.90;;;;;;6158205;23;20365;-73
2023/05/08 01:36:33;;;;;;;4.63;4.20;;;15.00;99.90;;;;;;6131817;23;20386;-71
2023/05/08 01:39:09;;;;;;;5.77;5.20;;;15.00;99.90;;;;;;6147644;23;20619;-73
2023/05/08 01:41:37;;;;;;;6.00;5.50;;;15.00;99.90;;;;;;6156770;23;20500;-73
2023/05/08 01:44:13;;;;;;;7.73;5.07;;;15.00;99.90;;;;;;6157645;23;20370;-73
2023/05/08 01:46:41;;;;;;;7.27;6.57;;;15.00;99.90;;;;;;6131906;23;20388;-73
2023/05/08 01:49:15;;;;;;;8.40;6.37;;;15.00;99.90;;;;;;6131418;23;20394;-72
2023/05/08 01:52:12;;;;;;;6.77;5.90;;;15.00;99.90;;;;;;6158673;23;20362;-72
2023/05/08 01:54:43;;;;;;;7.60;5.87;;;15.00;99.90;;;;;;6131963;23;20379;-72
2023/05/08 01:57:11;;;;;;;5.80;5.17;;;15.00;99.90;;;;;;6157770;23;20383;-73
2023/05/08 01:59:39;;;;;;;5.37;4.97;;;15.00;99.90;;;;;;6130905;23;20406;-73
2023/05/08 02:02:07;;;;;;;7.60;6.70;;;14.90;99.90;;;;;;6157985;23;20408;-72
2023/05/08 02:04:33;;;;;;;8.70;6.03;;;15.00;99.90;;;;;;6131982;23;20402;-71
2023/05/08 02:07:00;;;;;;;6.17;5.57;;;14.90;99.90;;;;;;6157570;23;20444;-71
2023/05/08 02:09:28;;;;;;;5.67;5.17;;;14.90;99.90;;;;;;6157454;23;20390;-72
2023/05/08 02:11:55;;;;;;;7.60;6.80;;;14.90;99.90;;;;;;6131906;23;20692;-74
2023/05/08 02:14:22;;;;;;;6.47;5.87;;;14.90;99.90;;;;;;6157349;23;20814;-72
2023/05/08 02:16:50;;;;;;;6.30;5.70;;;15.00;99.90;;;;;;6131321;23;20401;-72
2023/05/08 02:19:17;;;;;;;6.60;6.00;;;14.90;99.90;;;;;;6156939;23;20410;-71
2023/05/08 02:21:44;;;;;;;8.00;5.47;;;14.90;99.90;;;;;;6158183;23;20433;-72
2023/05/08 02:24:11;;;;;;;6.00;5.50;;;14.90;99.90;;;;;;6158407;23;20530;-73
2023/05/08 02:26:38;;;;;;;5.23;4.60;;;14.90;99.90;;;;;;6133567;23;20437;-72
2023/05/08 02:29:04;;;;;;;6.90;6.20;;;14.90;99.90;;;;;;6157996;23;20398;-72
2023/05/08 02:31:30;;;;;;;7.10;6.40;;;14.80;99.90;;;;;;6132502;23;20384;-72
2023/05/08 02:33:57;;;;;;;6.40;5.80;;;14.90;99.90;;;;;;6134933;23;20376;-71
2023/05/08 02:36:27;;;;;;;6.70;6.10;;;14.90;99.90;;;;;;6135507;23;20382;-73
2023/05/08 02:38:57;;;;;;;5.00;4.60;;;14.90;99.90;;;;;;6157524;23;20560;-73
2023/05/08 02:41:28;;;;;;;6.80;5.73;;;14.80;99.90;;;;;;6157482;23;20533;-73
2023/05/08 02:43:54;;;;;;;5.23;4.83;;;14.80;99.90;;;;;;6131235;23;20827;-73
2023/05/08 02:46:42;;;;;;;5.60;5.10;;;14.80;99.90;;;;;;6157859;23;20358;-72
2023/05/08 02:49:15;;;;;;;7.20;5.33;;;14.80;99.90;;;;;;6130532;23;20430;-73
2023/05/08 02:51:56;;;;;;;7.00;6.40;;;14.80;99.90;;;;;;6157727;23;20610;-72
2023/05/08 02:54:31;;;;;;;6.93;5.63;;;14.80;99.90;;;;;;6130381;23;20402;-74
2023/05/08 02:57:07;;;;;;;5.17;4.67;;;14.80;99.90;;;;;;6155824;23;20390;-71
2023/05/08 02:59:47;;;;;;;5.70;5.10;;;14.80;99.90;;;;;;6130412;23;20449;-72
2023/05/08 03:02:32;;;;;;;11.70;6.90;;;14.80;99.90;;;;;;6157768;23;20405;-73
2023/05/08 03:05:03;;;;;;;8.70;7.80;;;14.80;99.90;;;;;;6106894;23;20367;-72
2023/05/08 03:07:31;;;;;;;8.43;7.53;;;14.70;99.90;;;;;;6157408;23;20855;-72
2023/05/08 03:10:01;;;;;;;9.77;8.27;;;14.70;99.90;;;;;;6156581;23;20834;-71
2023/05/08 03:12:29;;;;;;;9.23;7.63;;;14.70;99.90;;;;;;6157856;23;20359;-72
2023/05/08 03:15:15;;;;;;;7.50;6.70;;;14.70;99.90;;;;;;6135089;23;20418;-72
2023/05/08 03:17:42;;;;;;;8.93;8.13;;;14.70;99.90;;;;;;6131054;23;20381;-72
2023/05/08 03:20:13;;;;;;;8.80;7.90;;;14.70;99.90;;;;;;6130761;23;20776;-73
2023/05/08 03:22:42;;;;;;;8.50;7.80;;;14.70;99.90;;;;;;6131325;23;20503;-72
2023/05/08 03:25:09;;;;;;;7.83;7.07;;;14.70;99.90;;;;;;6156982;23;20362;-72
2023/05/08 03:27:37;;;;;;;12.10;7.07;;;14.60;99.90;;;;;;6130149;23;20565;-72
2023/05/08 03:30:05;;;;;;;7.30;6.60;;;14.60;99.90;;;;;;6131003;23;21034;-72
2023/05/08 03:32:34;;;;;;;7.50;6.70;;;14.60;99.90;;;;;;6137036;23;20409;-72
2023/05/08 03:35:01;;;;;;;11.00;8.50;;;14.60;99.90;;;;;;6136879;23;20374;-76
2023/05/08 03:37:27;;;;;;;8.50;7.60;;;14.50;99.90;;;;;;6157843;23;20455;-72
2023/05/08 03:39:54;;;;;;;8.87;7.97;;;14.50;99.90;;;;;;6155701;23;20409;-72
2023/05/08 03:42:22;;;;;;;9.53;8.23;;;14.50;99.90;;;;;;6162423;23;20460;-71
2023/05/08 03:44:50;;;;;;;10.33;8.57;;;14.50;99.90;;;;;;6137922;23;20560;-73
2023/05/08 03:47:17;;;;;;;9.40;8.50;;;14.50;99.90;;;;;;6132815;23;20402;-73
2023/05/08 03:49:49;;;;;;;12.30;8.87;;;14.50;99.90;;;;;;6132397;23;20705;-72
2023/05/08 03:52:16;;;;;;;10.70;9.60;;;14.50;99.90;;;;;;6132903;23;20429;-72
2023/05/08 03:54:42;;;;;;;9.43;8.53;;;14.50;99.90;;;;;;6159138;23;20430;-72
2023/05/08 03:57:08;;;;;;;10.17;9.17;;;14.50;99.90;;;;;;6132475;23;20182;-72
2023/05/08 03:59:50;;;;;;;9.93;8.80;;;14.50;99.90;;;;;;6156544;23;20406;-73
2023/05/08 04:02:59;;;;;;;9.17;8.27;;;14.50;99.90;;;;;;6136384;23;20411;-72
2023/05/08 04:05:36;;;;;;;9.70;8.50;;;14.50;99.90;;;;;;6047125;23;20372;-75
2023/05/08 04:08:20;;;;;;;10.53;8.70;;;14.40;99.90;;;;;;6050573;23;20695;-72
2023/05/08 04:10:53;;;;;;;17.63;11.13;;;14.40;99.90;;;;;;6049176;23;20404;-73
2023/05/08 04:13:27;;;;;;;9.97;8.93;;;14.40;99.90;;;;;;6048429;23;20795;-72
2023/05/08 04:16:24;;;;;;;13.63;10.40;;;14.40;99.90;;;;;;6048831;23;20673;-74
2023/05/08 04:18:57;;;;;;;12.83;10.63;;;14.40;99.90;;;;;;6071766;23;20809;-72
2023/05/08 04:21:24;;;;;;;10.10;9.10;;;14.40;99.90;;;;;;6051387;23;20423;-71
2023/05/08 04:23:55;;;;;;;11.77;10.20;;;14.50;99.90;;;;;;6056089;23;20379;-73
2023/05/08 04:26:21;;;;;;;11.90;10.57;;;14.40;99.90;;;;;;6074164;23;20377;-72
2023/05/08 04:28:48;;;;;;;13.13;11.20;;;14.40;99.90;;;;;;6049918;23;20398;-73
2023/05/08 04:31:18;;;;;;;11.30;9.83;;;14.40;99.90;;;;;;6076564;23;20362;-73
2023/05/08 04:33:44;;;;;;;10.37;9.37;;;14.40;99.90;;;;;;6049252;23;20388;-73
2023/05/08 04:36:12;;;;;;;12.97;11.57;;;14.50;99.90;;;;;;6049855;23;20397;-72
2023/05/08 04:38:39;;;;;;;11.70;10.23;;;14.40;99.90;;;;;;6049433;23;20166;-71
2023/05/08 04:41:06;;;;;;;11.27;10.17;;;14.40;99.90;;;;;;6026125;23;20419;-72
2023/05/08 04:43:32;;;;;;;10.90;9.00;;;14.40;99.90;;;;;;6081980;23;20383;-73
2023/05/08 04:45:58;;;;;;;12.83;10.73;;;14.40;99.90;;;;;;6085384;23;20391;-78
2023/05/08 04:48:24;;;;;;;11.87;10.77;;;14.40;99.90;;;;;;6121004;23;20374;-74
2023/05/08 04:50:52;;;;;;;13.80;12.00;;;14.40;99.90;;;;;;6122020;23;20220;-72
2023/05/08 04:53:18;;;;;;;10.37;9.37;;;14.40;99.90;;;;;;6091736;23;20400;-73
2023/05/08 04:55:43;;;;;;;13.60;12.20;;;14.40;99.90;;;;;;6088826;23;21028;-76
2023/05/08 04:58:12;;;;;;;11.47;10.27;;;14.40;99.90;;;;;;6111280;23;20543;-73
2023/05/08 05:00:38;;;;;;;12.70;11.43;;;14.40;99.90;;;;;;6089577;23;20219;-75
2023/05/08 05:03:04;;;;;;;13.10;11.80;;;14.40;99.90;;;;;;6088186;23;20812;-75
2023/05/08 05:05:30;;;;;;;11.83;10.63;;;14.50;99.90;;;;;;6109700;23;20149;-72
2023/05/08 05:07:56;;;;;;;12.90;10.37;;;14.50;99.90;;;;;;6108377;23;20377;-72
2023/05/08 05:10:22;;;;;;;14.80;12.50;;;14.50;99.90;;;;;;6085219;23;20458;-72
2023/05/08 05:12:48;;;;;;;13.50;12.20;;;14.60;99.90;;;;;;6109759;23;20154;-72
2023/05/08 05:15:14;;;;;;;13.63;12.23;;;14.60;99.90;;;;;;6113918;23;20378;-74
2023/05/08 05:17:39;;;;;;;15.20;13.63;;;14.70;99.90;;;;;;6114307;23;20140;-74
2023/05/08 05:20:07;;;;;;;13.53;10.63;;;14.70;99.90;;;;;;6139304;23;20545;-72
2023/05/08 05:22:33;;;;;;;12.93;11.63;;;14.80;99.90;;;;;;6143552;23;20180;-75
2023/05/08 05:24:59;;;;;;;12.23;11.07;;;14.90;99.90;;;;;;6117850;23;20399;-75
2023/05/08 05:27:25;;;;;;;12.13;10.73;;;14.90;99.90;;;;;;6165182;23;20389;-74
2023/05/08 05:29:50;;;;;;;11.90;10.70;;;15.00;99.90;;;;;;6140976;23;20222;-75
2023/05/08 05:32:16;;;;;;;13.50;12.10;;;15.00;99.90;;;;;;6141331;23;20371;-75
2023/05/08 05:34:44;;;;;;;14.17;12.30;;;15.10;99.90;;;;;;6168451;23;20135;-74
2023/05/08 05:37:09;;;;;;;12.73;11.37;;;15.20;99.90;;;;;;6145060;23;20382;-74
2023/05/08 05:39:36;;;;;;;13.50;11.37;;;15.20;99.90;;;;;;6166372;23;20171;-76
2023/05/08 05:42:02;;;;;;;11.80;10.67;;;15.30;99.90;;;;;;6117597;23;20174;-74
2023/05/08 05:44:28;;;;;;;11.90;10.03;;;15.30;99.90;;;;;;6168737;23;20351;-76
2023/05/08 05:46:54;;;;;;;10.37;9.20;;;15.30;99.90;;;;;;6170272;23;20138;-76
2023/05/08 05:49:20;;;;;;;11.13;10.10;;;15.40;99.90;;;;;;6119286;23;20564;-78
2023/05/08 05:51:45;;;;;;;12.27;11.07;;;15.50;99.90;;;;;;6142600;23;20207;-75
2023/05/08 05:54:11;;;;;;;11.20;10.10;;;15.60;99.90;;;;;;6143736;23;20187;-73
2023/05/08 05:56:37;;;;;;;11.83;10.27;;;15.60;99.90;;;;;;6138852;23;20159;-74
2023/05/08 05:59:03;;;;;;;12.10;10.30;;;15.60;99.90;;;;;;6141620;23;20171;-75
2023/05/08 06:01:29;;;;;;;11.27;10.17;;;15.60;99.90;;;;;;6140457;23;20933;-75
2023/05/08 06:03:55;;;;;;;12.10;10.90;;;15.60;99.90;;;;;;6141214;23;20355;-73
2023/05/08 06:06:21;;;;;;;11.30;10.20;;;15.60;99.90;;;;;;6170379;23;20366;-76
2023/05/08 06:08:47;;;;;;;12.60;11.27;;;15.70;99.90;;;;;;6149404;23;20148;-76
2023/05/08 06:11:13;;;;;;;11.37;10.27;;;15.70;99.90;;;;;;6169306;23;20135;-76
2023/05/08 06:13:40;;;;;;;13.63;10.10;;;15.70;99.90;;;;;;6143724;23;20426;-76
2023/05/08 06:16:06;;;;;;;11.27;10.17;;;15.80;99.90;;;;;;6144138;23;20359;-74
2023/05/08 06:18:33;;;;;;;9.20;8.40;;;15.90;99.90;;;;;;6142343;23;20812;-72
2023/05/08 06:20:59;;;;;;;9.17;8.37;;;15.90;99.90;;;;;;6168310;23;20393;-78
2023/05/08 06:23:25;;;;;;;12.07;10.43;;;16.00;99.90;;;;;;6118766;23;20202;-77
2023/05/08 06:25:52;;;;;;;11.40;10.30;;;16.10;99.90;;;;;;6142396;23;20363;-76
2023/05/08 06:28:18;;;;;;;11.57;10.20;;;16.20;99.90;;;;;;6168727;23;20183;-73
2023/05/08 06:30:43;;;;;;;10.80;9.70;;;16.20;99.90;;;;;;6144293;23;20386;-75
2023/05/08 06:33:10;;;;;;;11.43;10.43;;;16.10;99.90;;;;;;6142955;23;20148;-76
2023/05/08 06:35:36;;;;;;;10.20;9.10;;;16.20;99.90;;;;;;6144049;23;20147;-75
2023/05/08 06:38:02;;;;;;;9.83;8.83;;;16.20;99.90;;;;;;6142551;23;20455;-74
2023/05/08 06:40:27;;;;;;;9.90;9.00;;;16.30;99.90;;;;;;6141411;23;20454;-75
2023/05/08 06:42:53;;;;;;;10.13;9.23;;;16.30;99.90;;;;;;6146682;23;20410;-76
2023/05/08 06:45:19;;;;;;;12.80;9.60;;;16.40;99.90;;;;;;6144690;23;20198;-75
2023/05/08 06:47:44;;;;;;;10.90;9.53;;;16.60;99.90;;;;;;6168596;23;20612;-75
2023/05/08 06:50:10;;;;;;;11.17;10.00;;;16.60;99.90;;;;;;6168202;23;20159;-75
2023/05/08 06:52:36;;;;;;;11.87;10.80;;;16.60;99.90;;;;;;6146306;23;20139;-78
2023/05/08 06:55:02;;;;;;;10.83;9.90;;;16.70;99.90;;;;;;6145327;23;20406;-77
2023/05/08 06:57:29;;;;;;;11.50;10.40;;;16.80;99.90;;;;;;6146085;23;20159;-76
2023/05/08 06:59:55;;;;;;;11.40;10.50;;;16.90;99.90;;;;;;6167275;23;20425;-74
2023/05/08 07:02:21;;;;;;;11.23;10.13;;;16.70;99.90;;;;;;6141659;23;20406;-74
2023/05/08 07:04:47;;;;;;;11.43;10.43;;;16.60;99.90;;;;;;6173384;23;20406;-76
2023/05/08 07:07:13;;;;;;;11.67;9.97;;;16.60;99.90;;;;;;6176710;23;20167;-74
2023/05/08 07:09:39;;;;;;;11.30;9.80;;;16.40;99.90;;;;;;6121875;23;20167;-76
2023/05/08 07:12:05;;;;;;;9.70;8.70;;;16.40;99.90;;;;;;6125256;23;20381;-76
2023/05/08 07:14:30;;;;;;;9.53;8.63;;;16.30;99.90;;;;;;6151869;23;20434;-77
2023/05/08 07:16:57;;;;;;;10.10;9.10;;;16.40;99.90;;;;;;6147565;23;20135;-77
2023/05/08 07:19:23;;;;;;;9.70;8.80;;;16.30;99.90;;;;;;6151072;23;20171;-73
2023/05/08 07:21:49;;;;;;;9.20;8.30;;;16.30;99.90;;;;;;6172337;23;20407;-76
2023/05/08 07:24:15;;;;;;;10.47;9.50;;;16.30;99.90;;;;;;6174748;23;20355;-78
2023/05/08 07:26:41;;;;;;;9.93;8.70;;;16.40;99.90;;;;;;6145070;23;20489;-77
2023/05/08 07:29:07;;;;;;;9.30;8.27;;;16.50;99.90;;;;;;6168779;23;20159;-74
2023/05/08 07:31:32;;;;;;;9.20;7.97;;;16.70;99.90;;;;;;6144171;23;20147;-77
2023/05/08 07:33:58;;;;;;;10.57;9.63;;;17.00;99.90;;;;;;6172826;23;20206;-78
2023/05/08 07:36:25;;;;;;;10.30;9.40;;;17.10;99.90;;;;;;6125883;23;20512;-78
2023/05/08 07:38:51;;;;;;;11.33;10.07;;;17.20;99.90;;;;;;6171455;23;20369;-77
2023/05/08 07:41:17;;;;;;;10.27;9.37;;;17.30;99.90;;;;;;6173092;23;20406;-77
2023/05/08 07:43:44;;;;;;;9.97;9.00;;;17.40;99.90;;;;;;6146056;23;20150;-77
2023/05/08 07:46:16;;;;;;;9.83;8.97;;;17.50;99.90;;;;;;6148977;23;20142;-76
2023/05/08 07:48:41;;;;;;;11.93;8.93;;;17.50;99.90;;;;;;6171362;23;20363;-76
2023/05/08 07:51:09;;;;;;;10.27;9.27;;;17.60;99.90;;;;;;6146763;23;20405;-78
2023/05/08 07:53:34;;;;;;;9.07;8.17;;;17.70;99.90;;;;;;6173748;23;20136;-77
2023/05/08 07:56:00;;;;;;;10.13;9.20;;;17.90;99.90;;;;;;6147524;23;20348;-75
2023/05/08 07:58:26;;;;;;;9.07;7.60;;;18.00;99.90;;;;;;6148037;23;20155;-75
2023/05/08 08:00:51;;;;;;;8.73;7.83;;;18.10;99.90;;;;;;6170977;23;20165;-75
2023/05/08 08:03:17;;;;;;;8.03;7.33;;;18.40;99.90;;;;;;6147474;23;20140;-76
2023/05/08 08:05:42;;;;;;;9.83;8.80;;;18.50;99.90;;;;;;6146853;23;20148;-77
2023/05/08 08:08:08;;;;;;;10.97;9.70;;;18.60;99.90;;;;;;6151076;23;20183;-76
2023/05/08 08:10:34;;;;;;;11.07;10.00;;;18.60;99.90;;;;;;6145907;23;20169;-76
2023/05/08 08:13:00;;;;;;;10.23;9.20;;;18.70;99.90;;;;;;6120549;23;20145;-74
2023/05/08 08:15:30;;;;;;;10.37;9.23;;;18.80;99.90;;;;;;6143502;23;20366;-75
2023/05/08 08:17:56;;;;;;;9.37;8.43;;;18.90;99.90;;;;;;6096503;23;20550;-77
2023/05/08 08:20:22;;;;;;;10.57;9.40;;;19.00;99.90;;;;;;6170692;23;20393;-77
2023/05/08 08:22:48;;;;;;;9.30;8.50;;;19.10;99.90;;;;;;6123853;23;20236;-75
2023/05/08 08:25:14;;;;;;;9.40;8.60;;;19.20;99.90;;;;;;6145051;23;20358;-77
2023/05/08 08:27:40;;;;;;;9.80;8.60;;;19.30;99.90;;;;;;6146204;23;20417;-76
2023/05/08 08:30:06;;;;;;;10.50;8.03;;;19.30;99.90;;;;;;6147615;23;20458;-77
2023/05/08 08:32:32;;;;;;;9.83;8.87;;;19.30;99.90;;;;;;6145123;23;20422;-75
2023/05/08 08:34:57;;;;;;;9.57;8.67;;;19.20;99.90;;;;;;6143858;23;20389;-76
2023/05/08 08:37:25;;;;;;;10.77;9.37;;;19.30;99.90;;;;;;6121459;23;20158;-74
2023/05/08 08:39:53;;;;;;;9.40;8.30;;;19.30;99.90;;;;;;6144642;23;20511;-77
2023/05/08 08:42:19;;;;;;;9.70;8.80;;;19.40;99.90;;;;;;6147204;23;20728;-74
2023/05/08 08:44:45;;;;;;;10.70;9.23;;;19.30;99.60;;;;;;6146327;23;20373;-76
2023/05/08 08:47:11;;;;;;;10.87;9.83;;;19.30;99.90;;;;;;6122615;23;20355;-75
2023/05/08 08:49:45;;;;;;;10.93;9.70;;;19.30;99.90;;;;;;6146193;23;20481;-74
2023/05/08 08:52:18;;;;;;;9.80;8.90;;;19.50;98.60;;;;;;6145801;23;20378;-75
2023/05/08 08:54:48;;;;;;;9.40;8.50;;;19.50;98.50;;;;;;6121168;23;20382;-76
2023/05/08 08:57:14;;;;;;;10.80;9.70;;;19.60;98.30;;;;;;6120814;23;20436;-74
2023/05/08 08:59:43;;;;;;;10.00;9.10;;;19.40;97.50;;;;;;6171198;23;20410;-77
2023/05/08 09:02:16;;;;;;;9.00;8.10;;;19.40;97.60;;;;;;6123707;23;20423;-77
2023/05/08 09:04:42;;;;;;;8.37;7.57;;;19.50;99.50;;;;;;6148160;23;20835;-74
2023/05/08 09:07:09;;;;;;;8.30;7.60;;;19.70;98.70;;;;;;6124168;23;20378;-79
2023/05/08 09:09:39;;;;;;;8.00;7.30;;;19.80;98.80;;;;;;6173175;23;20398;-78
2023/05/08 09:12:06;;;;;;;7.80;7.10;;;20.00;97.60;;;;;;6125213;23;20410;-77
2023/05/08 09:14:35;;;;;;;13.83;9.93;;;20.00;98.30;;;;;;6150882;23;20480;-80
2023/05/08 09:17:02;;;;;;;7.30;6.63;;;20.10;97.30;;;;;;6103005;23;20449;-79
2023/05/08 09:19:29;;;;;;;8.53;7.83;;;20.20;97.80;;;;;;6132203;23;20391;-79
2023/05/08 09:21:59;;;;;;;8.87;8.10;;;20.20;96.90;;;;;;6105148;23;20431;-78
2023/05/08 09:24:26;;;;;;;8.30;7.60;;;20.10;96.40;;;;;;6150435;23;20402;-76
2023/05/08 09:26:52;;;;;;;10.17;9.20;;;20.10;96.20;;;;;;6147171;23;20414;-76
2023/05/08 09:29:21;;;;;;;8.20;7.50;;;19.90;96.90;;;;;;6143572;23;20398;-74
2023/05/08 09:31:51;;;;;;;9.57;8.67;;;20.00;97.70;;;;;;6121310;23;20155;-74
2023/05/08 09:34:31;;;;;;;9.07;8.23;;;20.00;96.00;;;;;;6147285;23;20459;-76
2023/05/08 09:37:03;;;;;;;9.10;8.07;;;20.10;93.60;;;;;;6148919;23;20387;-77
2023/05/08 09:39:29;;;;;;;9.57;8.27;;;20.00;94.30;;;;;;6146861;23;20437;-73
2023/05/08 09:42:00;;;;;;;9.60;8.70;;;20.00;95.10;;;;;;6151015;23;20478;-77
2023/05/08 09:44:26;;;;;;;12.60;11.40;;;20.00;95.00;;;;;;6148555;23;20359;-77
2023/05/08 09:47:07;;;;;;;8.50;7.80;;;19.80;96.70;;;;;;6146700;23;20367;-75
2023/05/08 09:49:38;;;;;;;9.67;8.67;;;19.70;98.20;;;;;;6146348;23;20462;-76
2023/05/08 09:52:04;;;;;;;9.50;8.60;;;19.70;98.60;;;;;;6146634;23;20382;-76
2023/05/08 09:54:30;;;;;;;8.17;7.47;;;19.50;98.70;;;;;;6123932;23;20530;-77
2023/05/08 09:56:55;;;;;;;8.80;8.00;;;19.40;99.90;;;;;;6173045;23;20151;-76
2023/05/08 09:59:22;;;;;;;11.80;10.80;;;19.30;99.90;;;;;;6146716;23;20178;-74
2023/05/08 10:01:48;;;;;;;9.80;8.57;;;19.40;99.90;;;;;;6174833;23;20237;-75
2023/05/08 10:04:14;;;;;;;9.33;8.40;;;19.30;99.90;;;;;;6173937;23;20625;-77
2023/05/08 10:06:40;;;;;;;10.93;9.97;;;19.20;99.90;;;;;;6148136;23;20547;-77
2023/05/08 10:09:09;;;;;;;10.07;9.00;;;19.10;99.90;;;;;;6150990;23;20429;-77
2023/05/08 10:11:35;;;;;;;11.10;10.10;;;19.00;99.90;;;;;;6172692;23;20366;-75
2023/05/08 10:14:01;;;;;;;10.43;9.47;;;18.90;99.90;;;;;;6170671;23;20410;-73
2023/05/08 10:16:28;;;;;;;10.17;9.33;;;18.90;99.90;;;;;;6170620;23;20374;-76
2023/05/08 10:19:04;;;;;;;12.40;11.10;;;18.80;99.90;;;;;;6147109;23;20362;-76
2023/05/08 10:21:34;;;;;;;10.20;9.20;;;18.80;99.90;;;;;;6144613;23;20478;-76
2023/05/08 10:24:09;;;;;;;10.27;9.37;;;18.70;99.90;;;;;;6124446;23;20468;-77
2023/05/08 10:26:39;;;;;;;10.70;9.80;;;18.70;99.90;;;;;;6146777;23;20397;-76
2023/05/08 10:29:10;;;;;;;10.33;9.43;;;18.50;99.90;;;;;;6146407;23;20673;-75
2023/05/08 10:31:42;;;;;;;9.30;8.60;;;18.40;99.90;;;;;;6148746;23;20432;-75
2023/05/08 10:34:17;;;;;;;10.87;9.87;;;18.40;99.90;;;;;;6124065;23;20386;-78
2023/05/08 10:36:45;;;;;;;12.83;10.87;;;18.30;99.90;;;;;;6145312;23;20373;-76
2023/05/08 10:39:12;;;;;;;11.63;10.43;;;18.20;99.90;;;;;;6122592;23;20407;-75
2023/05/08 10:41:38;;;;;;;12.00;10.90;;;18.10;99.90;;;;;;6150978;23;20552;-75
2023/05/08 10:44:04;;;;;;;10.67;9.67;;;18.20;99.90;;;;;;6174877;23;20361;-76
2023/05/08 10:46:54;;;;;;;10.63;9.60;;;18.20;99.90;;;;;;6122217;23;20373;-75
2023/05/08 10:49:46;;;;;;;10.17;9.17;;;18.30;99.90;;;;;;6120944;23;20396;-75
2023/05/08 10:52:37;;;;;;;10.20;9.30;;;18.50;99.90;;;;;;6144231;23;20378;-77
2023/05/08 10:55:16;;;;;;;10.37;9.37;;;18.60;99.90;;;;;;6173039;23;20366;-78
2023/05/08 10:58:01;;;;;;;12.60;9.30;;;18.80;99.90;;;;;;6146688;23;20401;-75
2023/05/08 11:00:31;;;;;;;10.53;9.50;;;18.70;99.90;;;;;;6148573;23;20399;-76
2023/05/08 11:03:05;;;;;;;9.53;8.63;;;18.90;99.90;;;;;;6122821;23;20422;-78
2023/05/08 11:05:45;;;;;;;11.40;10.00;;;19.00;99.90;;;;;;6100684;23;20379;-77
2023/05/08 11:08:18;;;;;;;10.93;9.93;;;19.00;99.90;;;;;;6150408;23;20377;-77
2023/05/08 11:11:11;;;;;;;11.63;10.60;;;19.10;99.90;;;;;;6172746;23;20488;-75
2023/05/08 11:13:39;;;;;;;11.80;10.70;;;19.10;99.90;;;;;;6160656;23;20426;-74
2023/05/08 11:16:05;;;;;;;11.80;10.67;;;19.10;99.90;;;;;;6145612;23;20378;-77
2023/05/08 11:18:32;;;;;;;9.47;8.60;;;19.00;99.90;;;;;;6122103;23;20386;-76
2023/05/08 11:21:13;;;;;;;11.10;10.13;;;19.00;99.90;;;;;;6149392;23;20474;-77
2023/05/08 11:23:38;;;;;;;9.50;8.70;;;19.10;99.90;;;;;;6149343;23;20385;-76
2023/05/08 11:26:15;;;;;;;12.77;10.00;;;19.00;99.90;;;;;;6150383;23;20394;-78
2023/05/08 11:29:01;;;;;;;9.97;9.00;;;19.10;99.90;;;;;;6152167;23;20155;-78
2023/05/08 11:31:49;;;;;;;11.00;9.97;;;19.10;99.90;;;;;;6127965;23;20381;-78
2023/05/08 11:34:44;;;;;;;10.27;9.33;;;19.10;99.90;;;;;;6176351;23;20367;-77
2023/05/08 11:37:15;;;;;;;9.87;8.87;;;19.20;99.90;;;;;;6124672;23;20450;-77
2023/05/08 11:39:41;;;;;;;12.67;11.13;;;19.20;99.90;;;;;;6149026;23;20386;-75
2023/05/08 11:42:27;;;;;;;11.63;10.50;;;19.40;99.90;;;;;;6149920;23;20538;-76
2023/05/08 11:45:09;;;;;;;10.53;9.53;;;19.40;99.90;;;;;;6175378;23;20138;-77
2023/05/08 11:47:41;;;;;;;10.13;9.20;;;19.40;99.90;;;;;;6127237;23;20421;-78
2023/05/08 11:50:08;;;;;;;11.43;10.10;;;19.60;99.90;;;;;;6174329;23;20382;-77
2023/05/08 11:52:35;;;;;;;9.57;8.70;;;19.80;99.50;;;;;;6124065;23;20403;-77
2023/05/08 11:55:06;;;;;;;9.17;8.27;;;20.00;98.70;;;;;;6149522;23;20356;-76
2023/05/08 11:57:32;;;;;;;7.60;6.80;;;20.20;97.10;;;;;;6123424;23;20398;-76
2023/05/08 12:00:06;;;;;;;9.00;8.03;;;20.30;96.30;;;;;;6172963;23;20474;-76
2023/05/08 12:02:42;;;;;;;10.00;9.00;;;20.50;93.80;;;;;;6174702;23;20409;-77
2023/05/08 12:05:10;;;;;;;8.87;7.97;;;20.30;92.60;;;;;;6126289;23;20413;-76
2023/05/08 12:07:46;;;;;;;8.33;7.50;;;20.30;92.80;;;;;;6177177;23;20418;-76
2023/05/08 12:10:14;;;;;;;9.53;8.73;;;20.50;92.40;;;;;;6148052;23;20401;-79
2023/05/08 12:12:42;;;;;;;9.40;8.47;;;20.50;90.90;;;;;;6125409;23;20506;-77
2023/05/08 12:15:11;;;;;;;8.40;7.60;;;20.30;92.50;;;;;;6096669;23;20442;-77
2023/05/08 12:17:39;;;;;;;9.57;8.63;;;20.50;91.70;;;;;;6098393;23;20391;-76
2023/05/08 12:20:13;;;;;;;10.10;8.50;;;20.80;90.00;;;;;;6120171;23;20494;-77
2023/05/08 12:22:40;;;;;;;9.83;8.60;;;20.80;90.70;;;;;;6098956;23;20494;-77
2023/05/08 12:25:11;;;;;;;9.07;7.73;;;20.80;90.00;;;;;;6102750;23;20379;-77
2023/05/08 12:27:37;;;;;;;7.40;6.80;;;20.70;90.30;;;;;;6098474;23;20407;-74
2023/05/08 12:30:06;;;;;;;9.00;8.20;;;20.50;92.50;;;;;;6122096;23;20392;-77
2023/05/08 12:32:38;;;;;;;8.67;7.87;;;20.40;92.40;;;;;;6145895;23;20360;-77
2023/05/08 12:35:06;;;;;;;9.20;8.40;;;20.50;93.10;;;;;;6094912;23;20383;-77
2023/05/08 12:37:32;;;;;;;8.17;7.50;;;20.60;90.90;;;;;;6096893;23;20378;-78
2023/05/08 12:39:57;;;;;;;8.37;7.60;;;20.60;90.30;;;;;;6097306;23;20403;-77
2023/05/08 12:42:49;;;;;;;8.90;8.10;;;20.50;91.30;;;;;;6146518;23;20176;-76
2023/05/08 12:45:20;;;;;;;11.30;10.20;;;20.30;93.20;;;;;;6097018;23;20148;-74
2023/05/08 12:47:47;;;;;;;8.90;8.10;;;20.10;95.40;;;;;;6096456;23;20643;-78
2023/05/08 12:50:19;;;;;;;8.23;7.53;;;20.10;95.90;;;;;;6097650;23;20460;-77
2023/05/08 12:52:46;;;;;;;8.90;8.10;;;20.10;96.30;;;;;;6095004;23;20440;-76